sensor_id;sensor_type;location;lat;lon;timestamp;temperature;humidity
65291;SHT30;51893;59.754;10.110;2023-07-31T00:02:08;15.28;82.53
65291;SHT30;51893;59.754;10.110;2023-07-31T00:04:38;15.29;82.44
65291;SHT30;51893;59.754;10.110;2023-07-31T00:07:06;15.27;82.30
65291;SHT30;51893;59.754;10.110;2023-07-31T00:09:34;15.21;82.37
65291;SHT30;51893;59.754;10.110;2023-07-31T00:12:02;15.17;82.41
65291;SHT30;51893;59.754;10.110;2023-07-31T00:14:31;15.16;82.42
65291;SHT30;51893;59.754;10.110;2023-07-31T00:16:59;15.17;82.50
65291;SHT30;51893;59.754;10.110;2023-07-31T00:19:27;15.24;82.60
65291;SHT30;51893;59.754;10.110;2023-07-31T00:21:55;15.30;82.47
65291;SHT30;51893;59.754;10.110;2023-07-31T00:24:23;15.36;82.36
65291;SHT30;51893;59.754;10.110;2023-07-31T00:26:51;15.37;82.33
65291;SHT30;51893;59.754;10.110;2023-07-31T00:29:19;15.32;82.43
65291;SHT30;51893;59.754;10.110;2023-07-31T00:31:47;15.29;82.50
65291;SHT30;51893;59.754;10.110;2023-07-31T00:34:15;15.32;82.40
65291;SHT30;51893;59.754;10.110;2023-07-31T00:36:43;15.32;82.38
65291;SHT30;51893;59.754;10.110;2023-07-31T00:39:10;15.27;82.37
65291;SHT30;51893;59.754;10.110;2023-07-31T00:41:38;15.25;82.58
65291;SHT30;51893;59.754;10.110;2023-07-31T00:44:06;15.27;82.77
65291;SHT30;51893;59.754;10.110;2023-07-31T00:46:34;15.24;83.14
65291;SHT30;51893;59.754;10.110;2023-07-31T00:49:03;15.23;83.42
65291;SHT30;51893;59.754;10.110;2023-07-31T00:51:33;15.23;83.62
65291;SHT30;51893;59.754;10.110;2023-07-31T00:54:01;15.25;83.64
65291;SHT30;51893;59.754;10.110;2023-07-31T00:56:30;15.24;83.65
65291;SHT30;51893;59.754;10.110;2023-07-31T00:58:58;15.23;83.74
65291;SHT30;51893;59.754;10.110;2023-07-31T01:01:27;15.21;83.86
65291;SHT30;51893;59.754;10.110;2023-07-31T01:03:55;15.25;83.81
65291;SHT30;51893;59.754;10.110;2023-07-31T01:09:14;15.32;83.89
65291;SHT30;51893;59.754;10.110;2023-07-31T01:12:00;15.37;83.75
65291;SHT30;51893;59.754;10.110;2023-07-31T01:14:30;15.39;83.91
65291;SHT30;51893;59.754;10.110;2023-07-31T01:16:58;15.45;83.69
65291;SHT30;51893;59.754;10.110;2023-07-31T01:19:27;15.47;83.73
65291;SHT30;51893;59.754;10.110;2023-07-31T01:25:21;15.43;83.83
65291;SHT30;51893;59.754;10.110;2023-07-31T01:27:59;15.39;83.87
65291;SHT30;51893;59.754;10.110;2023-07-31T01:30:33;15.36;83.88
65291;SHT30;51893;59.754;10.110;2023-07-31T01:33:07;15.41;83.82
65291;SHT30;51893;59.754;10.110;2023-07-31T01:35:37;15.42;83.67
65291;SHT30;51893;59.754;10.110;2023-07-31T01:38:06;15.42;83.62
65291;SHT30;51893;59.754;10.110;2023-07-31T01:40:34;15.42;83.71
65291;SHT30;51893;59.754;10.110;2023-07-31T01:43:02;15.42;83.89
65291;SHT30;51893;59.754;10.110;2023-07-31T01:45:31;15.38;84.11
65291;SHT30;51893;59.754;10.110;2023-07-31T01:47:59;15.35;84.35
65291;SHT30;51893;59.754;10.110;2023-07-31T01:50:27;15.35;84.40
65291;SHT30;51893;59.754;10.110;2023-07-31T01:52:55;15.39;84.27
65291;SHT30;51893;59.754;10.110;2023-07-31T01:55:23;15.43;84.16
65291;SHT30;51893;59.754;10.110;2023-07-31T01:57:51;15.47;84.11
65291;SHT30;51893;59.754;10.110;2023-07-31T02:00:20;15.53;83.98
65291;SHT30;51893;59.754;10.110;2023-07-31T02:02:50;15.54;83.95
65291;SHT30;51893;59.754;10.110;2023-07-31T02:05:19;15.52;84.06
65291;SHT30;51893;59.754;10.110;2023-07-31T02:07:47;15.53;84.02
65291;SHT30;51893;59.754;10.110;2023-07-31T02:10:15;15.53;83.96
65291;SHT30;51893;59.754;10.110;2023-07-31T02:12:43;15.48;84.20
65291;SHT30;51893;59.754;10.110;2023-07-31T02:15:11;15.46;84.35
65291;SHT30;51893;59.754;10.110;2023-07-31T02:17:39;15.44;84.40
65291;SHT30;51893;59.754;10.110;2023-07-31T02:20:08;15.45;84.37
65291;SHT30;51893;59.754;10.110;2023-07-31T02:22:36;15.46;84.37
65291;SHT30;51893;59.754;10.110;2023-07-31T02:25:05;15.50;84.20
65291;SHT30;51893;59.754;10.110;2023-07-31T02:27:33;15.52;83.99
65291;SHT30;51893;59.754;10.110;2023-07-31T02:30:01;15.50;83.88
65291;SHT30;51893;59.754;10.110;2023-07-31T02:32:29;15.52;83.80
65291;SHT30;51893;59.754;10.110;2023-07-31T02:34:57;15.49;83.84
65291;SHT30;51893;59.754;10.110;2023-07-31T02:37:25;15.48;83.82
65291;SHT30;51893;59.754;10.110;2023-07-31T02:39:56;15.47;83.90
65291;SHT30;51893;59.754;10.110;2023-07-31T02:42:24;15.50;83.94
65291;SHT30;51893;59.754;10.110;2023-07-31T02:44:52;15.52;83.90
65291;SHT30;51893;59.754;10.110;2023-07-31T02:47:23;15.57;83.80
65291;SHT30;51893;59.754;10.110;2023-07-31T02:49:51;15.63;83.68
65291;SHT30;51893;59.754;10.110;2023-07-31T02:52:19;15.64;83.71
65291;SHT30;51893;59.754;10.110;2023-07-31T02:54:48;15.66;83.59
65291;SHT30;51893;59.754;10.110;2023-07-31T02:57:16;15.68;83.70
65291;SHT30;51893;59.754;10.110;2023-07-31T02:59:44;15.64;83.67
65291;SHT30;51893;59.754;10.110;2023-07-31T03:02:12;15.63;83.58
65291;SHT30;51893;59.754;10.110;2023-07-31T03:04:42;15.63;83.48
65291;SHT30;51893;59.754;10.110;2023-07-31T03:07:10;15.65;83.19
65291;SHT30;51893;59.754;10.110;2023-07-31T03:09:38;15.67;83.07
65291;SHT30;51893;59.754;10.110;2023-07-31T03:12:06;15.68;83.10
65291;SHT30;51893;59.754;10.110;2023-07-31T03:14:35;15.70;83.13
65291;SHT30;51893;59.754;10.110;2023-07-31T03:17:03;15.77;83.03
65291;SHT30;51893;59.754;10.110;2023-07-31T03:19:32;15.80;83.00
65291;SHT30;51893;59.754;10.110;2023-07-31T03:22:00;15.80;83.10
65291;SHT30;51893;59.754;10.110;2023-07-31T03:24:28;15.81;83.31
65291;SHT30;51893;59.754;10.110;2023-07-31T03:26:57;15.86;82.94
65291;SHT30;51893;59.754;10.110;2023-07-31T03:29:26;15.91;82.71
65291;SHT30;51893;59.754;10.110;2023-07-31T03:31:55;15.93;82.80
65291;SHT30;51893;59.754;10.110;2023-07-31T03:34:23;15.92;82.94
65291;SHT30;51893;59.754;10.110;2023-07-31T03:36:51;15.93;82.43
65291;SHT30;51893;59.754;10.110;2023-07-31T03:39:20;15.95;82.11
65291;SHT30;51893;59.754;10.110;2023-07-31T03:41:50;15.98;82.22
65291;SHT30;51893;59.754;10.110;2023-07-31T03:44:18;16.01;82.17
65291;SHT30;51893;59.754;10.110;2023-07-31T03:46:46;16.04;81.49
65291;SHT30;51893;59.754;10.110;2023-07-31T03:49:14;16.08;81.11
65291;SHT30;51893;59.754;10.110;2023-07-31T03:51:43;16.12;81.19
65291;SHT30;51893;59.754;10.110;2023-07-31T03:54:11;16.11;81.53
65291;SHT30;51893;59.754;10.110;2023-07-31T03:56:40;16.12;81.65
65291;SHT30;51893;59.754;10.110;2023-07-31T03:59:10;16.14;81.84
65291;SHT30;51893;59.754;10.110;2023-07-31T04:01:38;16.13;81.83
65291;SHT30;51893;59.754;10.110;2023-07-31T04:04:06;16.11;81.86
65291;SHT30;51893;59.754;10.110;2023-07-31T04:06:34;16.09;82.07
65291;SHT30;51893;59.754;10.110;2023-07-31T04:09:02;16.10;82.28
65291;SHT30;51893;59.754;10.110;2023-07-31T04:11:31;16.14;82.18
65291;SHT30;51893;59.754;10.110;2023-07-31T04:13:59;16.12;82.33
65291;SHT30;51893;59.754;10.110;2023-07-31T04:16:28;16.08;82.64
65291;SHT30;51893;59.754;10.110;2023-07-31T04:18:56;16.03;82.70
65291;SHT30;51893;59.754;10.110;2023-07-31T04:21:26;16.00;82.76
65291;SHT30;51893;59.754;10.110;2023-07-31T04:23:54;15.97;82.79
65291;SHT30;51893;59.754;10.110;2023-07-31T04:26:23;15.97;82.89
65291;SHT30;51893;59.754;10.110;2023-07-31T04:28:51;15.99;82.90
65291;SHT30;51893;59.754;10.110;2023-07-31T04:31:19;16.00;82.90
65291;SHT30;51893;59.754;10.110;2023-07-31T04:33:48;16.00;82.85
65291;SHT30;51893;59.754;10.110;2023-07-31T04:36:16;16.01;82.77
65291;SHT30;51893;59.754;10.110;2023-07-31T04:38:45;16.03;82.71
65291;SHT30;51893;59.754;10.110;2023-07-31T04:41:12;16.09;82.74
65291;SHT30;51893;59.754;10.110;2023-07-31T04:43:41;16.09;82.92
65291;SHT30;51893;59.754;10.110;2023-07-31T04:46:09;16.08;83.02
65291;SHT30;51893;59.754;10.110;2023-07-31T04:48:38;16.10;83.00
65291;SHT30;51893;59.754;10.110;2023-07-31T04:51:06;16.11;83.07
65291;SHT30;51893;59.754;10.110;2023-07-31T04:53:34;16.15;83.18
65291;SHT30;51893;59.754;10.110;2023-07-31T04:56:03;16.19;83.17
65291;SHT30;51893;59.754;10.110;2023-07-31T04:58:31;16.20;83.10
65291;SHT30;51893;59.754;10.110;2023-07-31T05:00:59;16.22;83.11
65291;SHT30;51893;59.754;10.110;2023-07-31T05:03:28;16.26;83.10
65291;SHT30;51893;59.754;10.110;2023-07-31T05:05:56;16.26;82.99
65291;SHT30;51893;59.754;10.110;2023-07-31T05:08:24;16.22;82.99
65291;SHT30;51893;59.754;10.110;2023-07-31T05:10:52;16.20;82.92
65291;SHT30;51893;59.754;10.110;2023-07-31T05:13:20;16.21;82.95
65291;SHT30;51893;59.754;10.110;2023-07-31T05:15:49;16.22;83.00
65291;SHT30;51893;59.754;10.110;2023-07-31T05:18:17;16.25;82.98
65291;SHT30;51893;59.754;10.110;2023-07-31T05:20:45;16.25;82.90
65291;SHT30;51893;59.754;10.110;2023-07-31T05:23:13;16.24;82.80
65291;SHT30;51893;59.754;10.110;2023-07-31T05:25:41;16.26;82.99
65291;SHT30;51893;59.754;10.110;2023-07-31T05:28:09;16.32;83.10
65291;SHT30;51893;59.754;10.110;2023-07-31T05:30:37;16.37;83.09
65291;SHT30;51893;59.754;10.110;2023-07-31T05:33:05;16.41;83.02
65291;SHT30;51893;59.754;10.110;2023-07-31T05:35:34;16.45;83.13
65291;SHT30;51893;59.754;10.110;2023-07-31T05:38:03;16.50;82.95
65291;SHT30;51893;59.754;10.110;2023-07-31T05:40:32;16.51;82.94
65291;SHT30;51893;59.754;10.110;2023-07-31T05:43:01;16.52;82.84
65291;SHT30;51893;59.754;10.110;2023-07-31T05:45:29;16.53;82.86
65291;SHT30;51893;59.754;10.110;2023-07-31T05:47:57;16.59;82.96
65291;SHT30;51893;59.754;10.110;2023-07-31T05:50:26;16.66;82.81
65291;SHT30;51893;59.754;10.110;2023-07-31T05:52:54;16.69;82.64
65291;SHT30;51893;59.754;10.110;2023-07-31T05:55:22;16.73;82.44
65291;SHT30;51893;59.754;10.110;2023-07-31T05:57:51;16.76;82.15
65291;SHT30;51893;59.754;10.110;2023-07-31T06:00:19;16.77;81.93
65291;SHT30;51893;59.754;10.110;2023-07-31T06:02:48;16.78;81.82
65291;SHT30;51893;59.754;10.110;2023-07-31T06:05:18;16.82;81.81
65291;SHT30;51893;59.754;10.110;2023-07-31T06:07:46;16.85;81.76
65291;SHT30;51893;59.754;10.110;2023-07-31T06:10:14;16.89;81.66
65291;SHT30;51893;59.754;10.110;2023-07-31T06:12:42;16.92;81.50
65291;SHT30;51893;59.754;10.110;2023-07-31T06:15:10;16.93;81.37
65291;SHT30;51893;59.754;10.110;2023-07-31T06:17:38;16.95;81.21
65291;SHT30;51893;59.754;10.110;2023-07-31T06:20:07;16.97;81.04
65291;SHT30;51893;59.754;10.110;2023-07-31T06:22:35;17.02;80.93
65291;SHT30;51893;59.754;10.110;2023-07-31T06:25:04;17.08;80.82
65291;SHT30;51893;59.754;10.110;2023-07-31T06:27:33;17.12;80.50
65291;SHT30;51893;59.754;10.110;2023-07-31T06:30:01;17.17;80.40
65291;SHT30;51893;59.754;10.110;2023-07-31T06:32:29;17.19;80.23
65291;SHT30;51893;59.754;10.110;2023-07-31T06:34:58;17.24;80.40
65291;SHT30;51893;59.754;10.110;2023-07-31T06:37:26;17.30;80.47
65291;SHT30;51893;59.754;10.110;2023-07-31T06:39:54;17.30;80.24
65291;SHT30;51893;59.754;10.110;2023-07-31T06:42:22;17.35;80.16
65291;SHT30;51893;59.754;10.110;2023-07-31T06:44:50;17.39;80.11
65291;SHT30;51893;59.754;10.110;2023-07-31T06:47:18;17.44;79.98
65291;SHT30;51893;59.754;10.110;2023-07-31T06:49:48;17.52;79.92
65291;SHT30;51893;59.754;10.110;2023-07-31T06:52:16;17.61;79.64
65291;SHT30;51893;59.754;10.110;2023-07-31T06:57:30;17.81;78.98
65291;SHT30;51893;59.754;10.110;2023-07-31T06:59:58;17.98;78.65
65291;SHT30;51893;59.754;10.110;2023-07-31T07:02:26;18.15;78.08
65291;SHT30;51893;59.754;10.110;2023-07-31T07:04:54;18.35;77.85
65291;SHT30;51893;59.754;10.110;2023-07-31T07:07:23;18.40;76.45
65291;SHT30;51893;59.754;10.110;2023-07-31T07:09:51;18.40;76.20
65291;SHT30;51893;59.754;10.110;2023-07-31T07:12:19;18.45;76.72
65291;SHT30;51893;59.754;10.110;2023-07-31T07:14:47;18.55;76.54
65291;SHT30;51893;59.754;10.110;2023-07-31T07:17:15;18.56;75.86
65291;SHT30;51893;59.754;10.110;2023-07-31T07:19:43;18.53;75.87
65291;SHT30;51893;59.754;10.110;2023-07-31T07:22:11;18.50;75.84
65291;SHT30;51893;59.754;10.110;2023-07-31T07:24:39;18.50;75.94
65291;SHT30;51893;59.754;10.110;2023-07-31T07:27:07;18.51;76.07
65291;SHT30;51893;59.754;10.110;2023-07-31T07:29:35;18.48;75.83
65291;SHT30;51893;59.754;10.110;2023-07-31T07:32:04;18.46;75.59
65291;SHT30;51893;59.754;10.110;2023-07-31T07:34:33;18.45;75.41
65291;SHT30;51893;59.754;10.110;2023-07-31T07:37:01;18.48;75.57
65291;SHT30;51893;59.754;10.110;2023-07-31T07:39:29;18.49;75.62
65291;SHT30;51893;59.754;10.110;2023-07-31T07:41:57;18.53;75.31
65291;SHT30;51893;59.754;10.110;2023-07-31T07:44:25;18.55;75.21
65291;SHT30;51893;59.754;10.110;2023-07-31T07:46:54;18.57;75.09
65291;SHT30;51893;59.754;10.110;2023-07-31T07:49:23;18.63;75.06
65291;SHT30;51893;59.754;10.110;2023-07-31T07:51:51;18.71;74.90
65291;SHT30;51893;59.754;10.110;2023-07-31T07:54:19;18.74;74.40
65291;SHT30;51893;59.754;10.110;2023-07-31T07:56:51;18.78;74.46
65291;SHT30;51893;59.754;10.110;2023-07-31T07:59:19;18.81;73.77
65291;SHT30;51893;59.754;10.110;2023-07-31T08:01:47;18.84;73.45
65291;SHT30;51893;59.754;10.110;2023-07-31T08:04:15;18.89;73.68
65291;SHT30;51893;59.754;10.110;2023-07-31T08:06:44;18.96;73.47
65291;SHT30;51893;59.754;10.110;2023-07-31T08:09:12;18.92;72.77
65291;SHT30;51893;59.754;10.110;2023-07-31T08:11:42;18.92;72.48
65291;SHT30;51893;59.754;10.110;2023-07-31T08:14:10;18.97;71.43
65291;SHT30;51893;59.754;10.110;2023-07-31T08:16:38;18.96;70.77
65291;SHT30;51893;59.754;10.110;2023-07-31T08:19:07;18.90;70.71
65291;SHT30;51893;59.754;10.110;2023-07-31T08:21:36;18.82;70.52
65291;SHT30;51893;59.754;10.110;2023-07-31T08:24:04;18.78;70.52
65291;SHT30;51893;59.754;10.110;2023-07-31T08:26:32;18.75;70.23
65291;SHT30;51893;59.754;10.110;2023-07-31T08:29:00;18.70;69.72
65291;SHT30;51893;59.754;10.110;2023-07-31T08:31:28;18.68;69.77
65291;SHT30;51893;59.754;10.110;2023-07-31T08:33:57;18.61;69.30
65291;SHT30;51893;59.754;10.110;2023-07-31T08:36:25;18.60;69.54
65291;SHT30;51893;59.754;10.110;2023-07-31T08:38:57;18.63;69.29
65291;SHT30;51893;59.754;10.110;2023-07-31T08:41:25;18.65;68.83
65291;SHT30;51893;59.754;10.110;2023-07-31T08:43:53;18.69;68.84
65291;SHT30;51893;59.754;10.110;2023-07-31T08:46:24;18.74;68.08
65291;SHT30;51893;59.754;10.110;2023-07-31T08:48:53;18.78;67.76
65291;SHT30;51893;59.754;10.110;2023-07-31T08:51:25;18.88;68.00
65291;SHT30;51893;59.754;10.110;2023-07-31T08:53:56;19.00;68.41
65291;SHT30;51893;59.754;10.110;2023-07-31T08:56:25;19.16;68.51
65291;SHT30;51893;59.754;10.110;2023-07-31T08:58:54;19.33;67.89
65291;SHT30;51893;59.754;10.110;2023-07-31T09:01:23;19.49;67.26
65291;SHT30;51893;59.754;10.110;2023-07-31T09:03:51;19.55;67.14
65291;SHT30;51893;59.754;10.110;2023-07-31T09:06:22;19.58;67.05
65291;SHT30;51893;59.754;10.110;2023-07-31T09:08:54;19.58;66.72
65291;SHT30;51893;59.754;10.110;2023-07-31T09:11:24;19.62;67.05
65291;SHT30;51893;59.754;10.110;2023-07-31T09:13:53;19.58;66.54
65291;SHT30;51893;59.754;10.110;2023-07-31T09:16:28;19.60;66.60
65291;SHT30;51893;59.754;10.110;2023-07-31T09:19:00;19.63;67.02
65291;SHT30;51893;59.754;10.110;2023-07-31T09:21:32;19.62;66.15
65291;SHT30;51893;59.754;10.110;2023-07-31T09:24:01;19.59;66.43
65291;SHT30;51893;59.754;10.110;2023-07-31T09:26:33;19.58;66.27
65291;SHT30;51893;59.754;10.110;2023-07-31T09:29:04;19.53;66.53
65291;SHT30;51893;59.754;10.110;2023-07-31T09:31:47;19.49;67.04
65291;SHT30;51893;59.754;10.110;2023-07-31T09:34:15;19.50;67.43
65291;SHT30;51893;59.754;10.110;2023-07-31T09:36:47;19.46;68.18
65291;SHT30;51893;59.754;10.110;2023-07-31T09:39:18;19.42;68.58
65291;SHT30;51893;59.754;10.110;2023-07-31T09:41:48;19.36;68.94
65291;SHT30;51893;59.754;10.110;2023-07-31T09:44:37;19.32;69.33
65291;SHT30;51893;59.754;10.110;2023-07-31T09:47:22;19.27;70.43
65291;SHT30;51893;59.754;10.110;2023-07-31T09:49:52;19.31;71.68
65291;SHT30;51893;59.754;10.110;2023-07-31T09:52:21;19.36;72.05
65291;SHT30;51893;59.754;10.110;2023-07-31T09:54:50;19.37;72.33
65291;SHT30;51893;59.754;10.110;2023-07-31T09:57:21;19.38;72.69
65291;SHT30;51893;59.754;10.110;2023-07-31T09:59:51;19.36;72.66
65291;SHT30;51893;59.754;10.110;2023-07-31T10:02:22;19.38;72.90
65291;SHT30;51893;59.754;10.110;2023-07-31T10:04:51;19.40;73.42
65291;SHT30;51893;59.754;10.110;2023-07-31T10:07:25;19.45;73.11
65291;SHT30;51893;59.754;10.110;2023-07-31T10:09:56;19.50;73.03
65291;SHT30;51893;59.754;10.110;2023-07-31T10:12:30;19.50;72.23
65291;SHT30;51893;59.754;10.110;2023-07-31T10:15:02;19.40;71.37
65291;SHT30;51893;59.754;10.110;2023-07-31T10:17:31;19.32;71.23
65291;SHT30;51893;59.754;10.110;2023-07-31T10:20:02;19.31;71.56
65291;SHT30;51893;59.754;10.110;2023-07-31T10:22:34;19.31;71.00
65291;SHT30;51893;59.754;10.110;2023-07-31T10:25:03;19.16;70.04
65291;SHT30;51893;59.754;10.110;2023-07-31T10:27:35;19.07;70.41
65291;SHT30;51893;59.754;10.110;2023-07-31T10:30:12;19.09;70.62
65291;SHT30;51893;59.754;10.110;2023-07-31T10:32:47;19.12;70.31
65291;SHT30;51893;59.754;10.110;2023-07-31T10:35:19;19.21;69.53
65291;SHT30;51893;59.754;10.110;2023-07-31T10:37:50;19.27;69.01
65291;SHT30;51893;59.754;10.110;2023-07-31T10:40:24;19.31;68.65
65291;SHT30;51893;59.754;10.110;2023-07-31T10:42:56;19.35;68.70
65291;SHT30;51893;59.754;10.110;2023-07-31T10:45:35;19.44;68.21
65291;SHT30;51893;59.754;10.110;2023-07-31T10:48:07;19.51;66.50
65291;SHT30;51893;59.754;10.110;2023-07-31T10:50:50;19.66;66.63
65291;SHT30;51893;59.754;10.110;2023-07-31T10:53:24;20.00;66.34
65291;SHT30;51893;59.754;10.110;2023-07-31T10:55:59;20.20;65.01
65291;SHT30;51893;59.754;10.110;2023-07-31T10:58:29;20.17;64.84
65291;SHT30;51893;59.754;10.110;2023-07-31T11:01:01;20.17;64.55
65291;SHT30;51893;59.754;10.110;2023-07-31T11:03:42;20.16;64.44
65291;SHT30;51893;59.754;10.110;2023-07-31T11:06:16;20.15;64.57
65291;SHT30;51893;59.754;10.110;2023-07-31T11:08:46;20.13;64.48
65291;SHT30;51893;59.754;10.110;2023-07-31T11:11:18;20.14;64.90
65291;SHT30;51893;59.754;10.110;2023-07-31T11:13:52;20.07;64.79
65291;SHT30;51893;59.754;10.110;2023-07-31T11:16:25;20.04;64.82
65291;SHT30;51893;59.754;10.110;2023-07-31T11:18:55;20.07;64.83
65291;SHT30;51893;59.754;10.110;2023-07-31T11:21:26;20.11;64.97
65291;SHT30;51893;59.754;10.110;2023-07-31T11:23:56;20.13;64.78
65291;SHT30;51893;59.754;10.110;2023-07-31T11:26:28;20.25;64.98
65291;SHT30;51893;59.754;10.110;2023-07-31T11:28:58;20.36;65.17
65291;SHT30;51893;59.754;10.110;2023-07-31T11:31:26;20.62;65.72
65291;SHT30;51893;59.754;10.110;2023-07-31T11:34:06;20.91;65.12
65291;SHT30;51893;59.754;10.110;2023-07-31T11:36:35;21.14;65.40
65291;SHT30;51893;59.754;10.110;2023-07-31T11:39:09;21.33;65.48
65291;SHT30;51893;59.754;10.110;2023-07-31T11:41:40;21.35;65.47
65291;SHT30;51893;59.754;10.110;2023-07-31T11:44:11;21.34;64.97
65291;SHT30;51893;59.754;10.110;2023-07-31T11:46:56;21.21;65.35
65291;SHT30;51893;59.754;10.110;2023-07-31T11:49:25;21.04;65.34
65291;SHT30;51893;59.754;10.110;2023-07-31T11:51:53;20.84;66.18
65291;SHT30;51893;59.754;10.110;2023-07-31T11:54:22;20.77;66.23
65291;SHT30;51893;59.754;10.110;2023-07-31T11:56:51;20.57;66.41
65291;SHT30;51893;59.754;10.110;2023-07-31T11:59:20;20.42;66.83
65291;SHT30;51893;59.754;10.110;2023-07-31T12:01:48;20.29;67.65
65291;SHT30;51893;59.754;10.110;2023-07-31T12:04:21;20.20;68.15
65291;SHT30;51893;59.754;10.110;2023-07-31T12:06:49;20.20;68.27
65291;SHT30;51893;59.754;10.110;2023-07-31T12:09:25;20.20;68.52
65291;SHT30;51893;59.754;10.110;2023-07-31T12:11:54;20.34;68.55
65291;SHT30;51893;59.754;10.110;2023-07-31T12:14:26;20.49;67.78
65291;SHT30;51893;59.754;10.110;2023-07-31T12:17:00;20.55;66.60
65291;SHT30;51893;59.754;10.110;2023-07-31T12:19:36;20.52;65.09
65291;SHT30;51893;59.754;10.110;2023-07-31T12:22:15;20.53;65.36
65291;SHT30;51893;59.754;10.110;2023-07-31T12:24:44;20.71;65.31
65291;SHT30;51893;59.754;10.110;2023-07-31T12:27:13;20.88;64.77
65291;SHT30;51893;59.754;10.110;2023-07-31T12:29:42;21.08;63.85
65291;SHT30;51893;59.754;10.110;2023-07-31T12:32:23;21.34;63.80
65291;SHT30;51893;59.754;10.110;2023-07-31T12:34:53;21.62;62.56
65291;SHT30;51893;59.754;10.110;2023-07-31T12:37:21;21.89;61.97
65291;SHT30;51893;59.754;10.110;2023-07-31T12:39:49;22.14;62.10
65291;SHT30;51893;59.754;10.110;2023-07-31T12:42:17;22.39;60.63
65291;SHT30;51893;59.754;10.110;2023-07-31T12:44:46;22.45;59.33
65291;SHT30;51893;59.754;10.110;2023-07-31T12:47:14;22.45;59.21
65291;SHT30;51893;59.754;10.110;2023-07-31T12:49:42;22.63;59.64
65291;SHT30;51893;59.754;10.110;2023-07-31T12:52:10;22.87;59.19
65291;SHT30;51893;59.754;10.110;2023-07-31T12:54:38;23.03;58.97
65291;SHT30;51893;59.754;10.110;2023-07-31T12:57:06;23.10;58.60
65291;SHT30;51893;59.754;10.110;2023-07-31T12:59:35;23.19;57.80
65291;SHT30;51893;59.754;10.110;2023-07-31T13:02:03;23.18;57.14
65291;SHT30;51893;59.754;10.110;2023-07-31T13:04:31;23.12;56.50
65291;SHT30;51893;59.754;10.110;2023-07-31T13:06:59;23.03;56.58
65291;SHT30;51893;59.754;10.110;2023-07-31T13:09:27;23.08;57.22
65291;SHT30;51893;59.754;10.110;2023-07-31T13:11:55;23.11;56.46
65291;SHT30;51893;59.754;10.110;2023-07-31T13:14:23;23.27;55.70
65291;SHT30;51893;59.754;10.110;2023-07-31T13:16:52;23.44;54.99
65291;SHT30;51893;59.754;10.110;2023-07-31T13:19:20;23.56;53.89
65291;SHT30;51893;59.754;10.110;2023-07-31T13:21:48;23.64;53.37
65291;SHT30;51893;59.754;10.110;2023-07-31T13:24:16;23.53;52.59
65291;SHT30;51893;59.754;10.110;2023-07-31T13:26:44;23.17;52.61
65291;SHT30;51893;59.754;10.110;2023-07-31T13:29:13;22.83;54.06
65291;SHT30;51893;59.754;10.110;2023-07-31T13:31:41;22.45;54.92
65291;SHT30;51893;59.754;10.110;2023-07-31T13:34:09;22.24;55.56
65291;SHT30;51893;59.754;10.110;2023-07-31T13:36:37;22.29;56.83
65291;SHT30;51893;59.754;10.110;2023-07-31T13:39:06;22.42;56.48
65291;SHT30;51893;59.754;10.110;2023-07-31T13:41:35;22.39;56.68
65291;SHT30;51893;59.754;10.110;2023-07-31T13:44:03;22.25;56.53
65291;SHT30;51893;59.754;10.110;2023-07-31T13:46:32;22.06;56.84
65291;SHT30;51893;59.754;10.110;2023-07-31T13:49:00;21.99;57.07
65291;SHT30;51893;59.754;10.110;2023-07-31T13:51:29;22.18;57.27
65291;SHT30;51893;59.754;10.110;2023-07-31T13:53:57;22.56;56.40
65291;SHT30;51893;59.754;10.110;2023-07-31T13:56:25;22.79;55.29
65291;SHT30;51893;59.754;10.110;2023-07-31T13:58:53;22.97;54.26
65291;SHT30;51893;59.754;10.110;2023-07-31T14:01:21;23.16;53.63
65291;SHT30;51893;59.754;10.110;2023-07-31T14:03:49;23.32;52.56
65291;SHT30;51893;59.754;10.110;2023-07-31T14:06:17;23.35;51.42
65291;SHT30;51893;59.754;10.110;2023-07-31T14:08:46;23.10;51.87
65291;SHT30;51893;59.754;10.110;2023-07-31T14:11:14;22.99;51.97
65291;SHT30;51893;59.754;10.110;2023-07-31T14:13:42;23.19;52.24
65291;SHT30;51893;59.754;10.110;2023-07-31T14:16:10;23.49;51.77
65291;SHT30;51893;59.754;10.110;2023-07-31T14:18:38;23.80;51.47
65291;SHT30;51893;59.754;10.110;2023-07-31T14:21:09;24.02;51.38
65291;SHT30;51893;59.754;10.110;2023-07-31T14:23:37;24.20;51.00
65291;SHT30;51893;59.754;10.110;2023-07-31T14:26:05;24.34;51.09
65291;SHT30;51893;59.754;10.110;2023-07-31T14:28:33;24.53;50.98
65291;SHT30;51893;59.754;10.110;2023-07-31T14:31:01;24.75;50.74
65291;SHT30;51893;59.754;10.110;2023-07-31T14:33:31;24.79;49.85
65291;SHT30;51893;59.754;10.110;2023-07-31T14:36:00;24.88;49.54
65291;SHT30;51893;59.754;10.110;2023-07-31T14:38:28;25.07;49.38
65291;SHT30;51893;59.754;10.110;2023-07-31T14:40:56;25.13;48.94
65291;SHT30;51893;59.754;10.110;2023-07-31T14:43:24;25.16;48.39
65291;SHT30;51893;59.754;10.110;2023-07-31T14:45:52;25.14;48.31
65291;SHT30;51893;59.754;10.110;2023-07-31T14:48:21;25.11;48.31
65291;SHT30;51893;59.754;10.110;2023-07-31T14:50:57;25.10;48.40
65291;SHT30;51893;59.754;10.110;2023-07-31T14:53:25;25.10;47.62
65291;SHT30;51893;59.754;10.110;2023-07-31T14:55:53;25.13;47.15
65291;SHT30;51893;59.754;10.110;2023-07-31T14:58:21;25.22;46.74
65291;SHT30;51893;59.754;10.110;2023-07-31T15:00:48;25.29;45.97
65291;SHT30;51893;59.754;10.110;2023-07-31T15:03:16;25.35;47.18
65291;SHT30;51893;59.754;10.110;2023-07-31T15:05:44;25.43;47.39
65291;SHT30;51893;59.754;10.110;2023-07-31T15:08:12;25.51;46.95
65291;SHT30;51893;59.754;10.110;2023-07-31T15:10:40;25.52;46.78
65291;SHT30;51893;59.754;10.110;2023-07-31T15:13:08;25.41;46.67
65291;SHT30;51893;59.754;10.110;2023-07-31T15:15:36;25.23;46.64
65291;SHT30;51893;59.754;10.110;2023-07-31T15:18:04;25.09;46.57
65291;SHT30;51893;59.754;10.110;2023-07-31T15:20:32;25.11;46.83
65291;SHT30;51893;59.754;10.110;2023-07-31T15:23:01;24.91;47.09
65291;SHT30;51893;59.754;10.110;2023-07-31T15:25:29;24.90;47.50
65291;SHT30;51893;59.754;10.110;2023-07-31T15:27:57;24.98;47.08
65291;SHT30;51893;59.754;10.110;2023-07-31T15:30:29;24.95;46.48
65291;SHT30;51893;59.754;10.110;2023-07-31T15:32:57;25.02;46.42
65291;SHT30;51893;59.754;10.110;2023-07-31T15:35:26;25.14;46.48
65291;SHT30;51893;59.754;10.110;2023-07-31T15:37:54;25.22;45.65